sensor_id;sensor_type;location;lat;lon;timestamp;temperature;humidity
26049;DHT22;13822;51.568;5.086;2022-08-01T04:57:07;18.90;99.90
26049;DHT22;13822;51.568;5.086;2022-08-01T05:02:11;18.90;99.90
26049;DHT22;13822;51.568;5.086;2022-08-01T05:07:15;18.80;99.90
26049;DHT22;13822;51.568;5.086;2022-08-01T05:12:17;18.80;99.90
26049;DHT22;13822;51.568;5.086;2022-08-01T05:17:19;18.80;99.90
26049;DHT22;13822;51.568;5.086;2022-08-01T05:22:21;18.80;99.90
26049;DHT22;13822;51.568;5.086;2022-08-01T05:27:23;18.90;99.90
26049;DHT22;13822;51.568;5.086;2022-08-01T05:32:27;18.90;99.90
26049;DHT22;13822;51.568;5.086;2022-08-01T05:37:31;19.00;99.90
26049;DHT22;13822;51.568;5.086;2022-08-01T05:42:33;19.10;99.90
26049;DHT22;13822;51.568;5.086;2022-08-01T05:47:35;19.10;99.90
26049;DHT22;13822;51.568;5.086;2022-08-01T05:52:43;19.10;99.90
26049;DHT22;13822;51.568;5.086;2022-08-01T05:57:45;19.20;99.90
26049;DHT22;13822;51.568;5.086;2022-08-01T06:02:48;19.20;99.90
26049;DHT22;13822;51.568;5.086;2022-08-01T06:07:50;19.20;99.90
26049;DHT22;13822;51.568;5.086;2022-08-01T06:12:52;19.30;99.90
26049;DHT22;13822;51.568;5.086;2022-08-01T06:17:55;19.30;99.90
26049;DHT22;13822;51.568;5.086;2022-08-01T06:22:57;19.40;99.90
26049;DHT22;13822;51.568;5.086;2022-08-01T06:28:01;19.40;99.90
26049;DHT22;13822;51.568;5.086;2022-08-01T06:33:04;19.40;99.90
26049;DHT22;13822;51.568;5.086;2022-08-01T06:38:06;19.50;99.90
26049;DHT22;13822;51.568;5.086;2022-08-01T06:43:11;19.50;99.90
26049;DHT22;13822;51.568;5.086;2022-08-01T06:48:17;19.60;99.90
26049;DHT22;13822;51.568;5.086;2022-08-01T06:53:19;19.60;99.90
26049;DHT22;13822;51.568;5.086;2022-08-01T06:58:21;19.70;99.90
26049;DHT22;13822;51.568;5.086;2022-08-01T07:03:33;19.80;99.90
26049;DHT22;13822;51.568;5.086;2022-08-01T07:08:55;19.90;99.90
26049;DHT22;13822;51.568;5.086;2022-08-01T07:13:57;19.90;99.90
26049;DHT22;13822;51.568;5.086;2022-08-01T07:19:00;19.90;99.90
26049;DHT22;13822;51.568;5.086;2022-08-01T07:24:03;20.00;99.90
26049;DHT22;13822;51.568;5.086;2022-08-01T07:29:14;20.00;99.90
26049;DHT22;13822;51.568;5.086;2022-08-01T07:34:16;20.10;99.90
26049;DHT22;13822;51.568;5.086;2022-08-01T07:39:18;20.00;99.90
26049;DHT22;13822;51.568;5.086;2022-08-01T07:44:21;20.10;99.90
26049;DHT22;13822;51.568;5.086;2022-08-01T07:49:23;20.10;99.90
26049;DHT22;13822;51.568;5.086;2022-08-01T07:54:25;20.20;99.90
26049;DHT22;13822;51.568;5.086;2022-08-01T07:59:34;20.30;99.90
26049;DHT22;13822;51.568;5.086;2022-08-01T08:04:36;20.40;99.90
26049;DHT22;13822;51.568;5.086;2022-08-01T08:09:38;20.40;99.90
26049;DHT22;13822;51.568;5.086;2022-08-01T08:14:52;20.50;99.90
26049;DHT22;13822;51.568;5.086;2022-08-01T08:19:54;20.40;99.90
26049;DHT22;13822;51.568;5.086;2022-08-01T08:24:56;20.40;99.90
26049;DHT22;13822;51.568;5.086;2022-08-01T08:30:02;20.40;99.90
26049;DHT22;13822;51.568;5.086;2022-08-01T08:35:06;20.50;99.90
26049;DHT22;13822;51.568;5.086;2022-08-01T08:40:12;20.60;99.90
26049;DHT22;13822;51.568;5.086;2022-08-01T08:45:14;20.70;99.90
26049;DHT22;13822;51.568;5.086;2022-08-01T08:50:16;20.80;99.90
26049;DHT22;13822;51.568;5.086;2022-08-01T08:55:18;21.00;99.90
26049;DHT22;13822;51.568;5.086;2022-08-01T09:00:21;21.10;99.90
26049;DHT22;13822;51.568;5.086;2022-08-01T09:05:24;21.20;99.90
26049;DHT22;13822;51.568;5.086;2022-08-01T09:10:39;21.40;99.90
26049;DHT22;13822;51.568;5.086;2022-08-01T09:15:47;21.60;99.90
26049;DHT22;13822;51.568;5.086;2022-08-01T09:20:51;21.70;99.90
26049;DHT22;13822;51.568;5.086;2022-08-01T09:26:30;21.90;99.90
26049;DHT22;13822;51.568;5.086;2022-08-01T09:31:42;22.10;99.90
26049;DHT22;13822;51.568;5.086;2022-08-01T09:36:49;22.20;99.90
26049;DHT22;13822;51.568;5.086;2022-08-01T09:42:01;22.30;99.90
26049;DHT22;13822;51.568;5.086;2022-08-01T09:47:21;22.20;99.90
26049;DHT22;13822;51.568;5.086;2022-08-01T09:52:25;22.20;99.90
26049;DHT22;13822;51.568;5.086;2022-08-01T09:57:30;22.10;99.90
26049;DHT22;13822;51.568;5.086;2022-08-01T10:02:33;22.00;99.90
26049;DHT22;13822;51.568;5.086;2022-08-01T10:13:00;22.00;99.90
26049;DHT22;13822;51.568;5.086;2022-08-01T10:18:09;22.10;99.90
26049;DHT22;13822;51.568;5.086;2022-08-01T10:23:27;22.20;99.90
26049;DHT22;13822;51.568;5.086;2022-08-01T10:28:44;22.20;99.90
26049;DHT22;13822;51.568;5.086;2022-08-01T10:33:46;22.20;99.90
26049;DHT22;13822;51.568;5.086;2022-08-01T10:38:56;22.20;99.90
26049;DHT22;13822;51.568;5.086;2022-08-01T10:44:00;22.20;99.90
26049;DHT22;13822;51.568;5.086;2022-08-01T10:49:16;22.10;99.90
26049;DHT22;13822;51.568;5.086;2022-08-01T10:54:24;22.00;99.90
26049;DHT22;13822;51.568;5.086;2022-08-01T10:59:29;22.20;99.90
26049;DHT22;13822;51.568;5.086;2022-08-01T11:05:04;22.50;99.90
26049;DHT22;13822;51.568;5.086;2022-08-01T11:10:29;22.70;99.90
26049;DHT22;13822;51.568;5.086;2022-08-01T11:15:34;23.30;99.90
26049;DHT22;13822;51.568;5.086;2022-08-01T11:21:02;23.60;99.90
26049;DHT22;13822;51.568;5.086;2022-08-01T11:26:24;23.40;99.90
26049;DHT22;13822;51.568;5.086;2022-08-01T11:31:31;23.90;99.90
26049;DHT22;13822;51.568;5.086;2022-08-01T11:36:38;23.90;99.90
26049;DHT22;13822;51.568;5.086;2022-08-01T11:42:19;23.70;99.90
26049;DHT22;13822;51.568;5.086;2022-08-01T11:52:47;23.70;99.90
26049;DHT22;13822;51.568;5.086;2022-08-01T11:58:08;23.70;99.90
26049;DHT22;13822;51.568;5.086;2022-08-01T12:03:30;23.70;99.90
26049;DHT22;13822;51.568;5.086;2022-08-01T12:08:35;23.50;99.90
26049;DHT22;13822;51.568;5.086;2022-08-01T12:13:40;23.30;99.90
26049;DHT22;13822;51.568;5.086;2022-08-01T12:18:43;23.10;99.90
26049;DHT22;13822;51.568;5.086;2022-08-01T12:23:45;22.90;99.90
26049;DHT22;13822;51.568;5.086;2022-08-01T12:28:47;22.90;99.90
26049;DHT22;13822;51.568;5.086;2022-08-01T12:33:49;22.90;99.90
26049;DHT22;13822;51.568;5.086;2022-08-01T12:38:52;23.00;99.90
26049;DHT22;13822;51.568;5.086;2022-08-01T12:43:54;22.90;99.90
26049;DHT22;13822;51.568;5.086;2022-08-01T12:48:56;23.00;99.90
26049;DHT22;13822;51.568;5.086;2022-08-01T12:53:59;23.00;99.90
26049;DHT22;13822;51.568;5.086;2022-08-01T12:59:01;23.20;99.90
26049;DHT22;13822;51.568;5.086;2022-08-01T13:04:04;23.70;99.90
26049;DHT22;13822;51.568;5.086;2022-08-01T13:09:07;24.10;99.90
26049;DHT22;13822;51.568;5.086;2022-08-01T13:14:10;24.10;99.90
26049;DHT22;13822;51.568;5.086;2022-08-01T13:19:12;24.00;99.90
26049;DHT22;13822;51.568;5.086;2022-08-01T13:24:15;23.90;99.90
26049;DHT22;13822;51.568;5.086;2022-08-01T13:29:19;24.10;99.90
26049;DHT22;13822;51.568;5.086;2022-08-01T13:34:33;24.20;99.90
26049;DHT22;13822;51.568;5.086;2022-08-01T13:39:35;24.60;99.90
26049;DHT22;13822;51.568;5.086;2022-08-01T13:44:44;24.80;99.90
26049;DHT22;13822;51.568;5.086;2022-08-01T13:49:49;24.70;99.90
26049;DHT22;13822;51.568;5.086;2022-08-01T13:54:51;24.80;99.90
26049;DHT22;13822;51.568;5.086;2022-08-01T13:59:53;24.70;99.90
26049;DHT22;13822;51.568;5.086;2022-08-01T14:04:55;24.90;99.90
26049;DHT22;13822;51.568;5.086;2022-08-01T14:10:02;25.00;99.90
26049;DHT22;13822;51.568;5.086;2022-08-01T14:15:20;24.90;99.90
26049;DHT22;13822;51.568;5.086;2022-08-01T14:20:42;24.80;99.90
26049;DHT22;13822;51.568;5.086;2022-08-01T14:25:44;24.40;99.90
26049;DHT22;13822;51.568;5.086;2022-08-01T14:31:04;24.20;99.90
26049;DHT22;13822;51.568;5.086;2022-08-01T14:36:09;24.30;99.90
26049;DHT22;13822;51.568;5.086;2022-08-01T14:41:31;24.60;99.90
26049;DHT22;13822;51.568;5.086;2022-08-01T14:46:33;24.90;98.70
26049;DHT22;13822;51.568;5.086;2022-08-01T14:51:35;24.90;99.90
26049;DHT22;13822;51.568;5.086;2022-08-01T14:56:39;24.70;99.90
26049;DHT22;13822;51.568;5.086;2022-08-01T15:01:41;24.60;99.90
26049;DHT22;13822;51.568;5.086;2022-08-01T15:06:44;24.80;99.90
26049;DHT22;13822;51.568;5.086;2022-08-01T15:11:46;25.20;99.90
26049;DHT22;13822;51.568;5.086;2022-08-01T15:16:48;25.60;99.90
26049;DHT22;13822;51.568;5.086;2022-08-01T15:21:51;26.00;99.90
26049;DHT22;13822;51.568;5.086;2022-08-01T15:26:53;26.10;99.90
26049;DHT22;13822;51.568;5.086;2022-08-01T15:31:55;26.00;99.90
26049;DHT22;13822;51.568;5.086;2022-08-01T15:36:57;25.90;99.90
26049;DHT22;13822;51.568;5.086;2022-08-01T15:42:02;26.10;99.90
26049;DHT22;13822;51.568;5.086;2022-08-01T15:47:08;25.90;99.90
26049;DHT22;13822;51.568;5.086;2022-08-01T15:52:10;25.80;99.90
26049;DHT22;13822;51.568;5.086;2022-08-01T15:57:23;25.70;99.90
26049;DHT22;13822;51.568;5.086;2022-08-01T16:02:25;25.70;99.90
26049;DHT22;13822;51.568;5.086;2022-08-01T16:07:27;25.50;99.90
26049;DHT22;13822;51.568;5.086;2022-08-01T16:12:29;25.70;99.90
26049;DHT22;13822;51.568;5.086;2022-08-01T16:17:31;25.80;99.90
26049;DHT22;13822;51.568;5.086;2022-08-01T16:22:34;25.70;99.90
26049;DHT22;13822;51.568;5.086;2022-08-01T16:27:37;25.50;99.90
26049;DHT22;13822;51.568;5.086;2022-08-01T16:32:39;25.50;99.90
26049;DHT22;13822;51.568;5.086;2022-08-01T16:37:54;25.60;99.90
26049;DHT22;13822;51.568;5.086;2022-08-01T16:42:56;25.70;99.90
26049;DHT22;13822;51.568;5.086;2022-08-01T16:47:59;25.80;99.90
26049;DHT22;13822;51.568;5.086;2022-08-01T16:53:02;25.80;99.90
26049;DHT22;13822;51.568;5.086;2022-08-01T16:58:05;25.80;99.90
26049;DHT22;13822;51.568;5.086;2022-08-01T17:03:13;25.80;99.90
26049;DHT22;13822;51.568;5.086;2022-08-01T17:08:18;25.60;99.90
26049;DHT22;13822;51.568;5.086;2022-08-01T17:13:20;25.40;99.90
26049;DHT22;13822;51.568;5.086;2022-08-01T17:18:24;25.20;99.90
26049;DHT22;13822;51.568;5.086;2022-08-01T17:23:26;25.00;99.90
26049;DHT22;13822;51.568;5.086;2022-08-01T17:28:29;24.70;75.50
26049;DHT22;13822;51.568;5.086;2022-08-01T17:33:31;24.50;99.90
26049;DHT22;13822;51.568;5.086;2022-08-01T17:38:46;24.50;99.90
26049;DHT22;13822;51.568;5.086;2022-08-01T17:43:49;24.60;99.90
26049;DHT22;13822;51.568;5.086;2022-08-01T17:48:52;24.60;99.90
26049;DHT22;13822;51.568;5.086;2022-08-01T17:53:54;24.60;99.50
26049;DHT22;13822;51.568;5.086;2022-08-01T17:58:59;24.30;95.50
26049;DHT22;13822;51.568;5.086;2022-08-01T18:04:01;24.20;99.90
26049;DHT22;13822;51.568;5.086;2022-08-01T18:09:03;24.10;99.90
26049;DHT22;13822;51.568;5.086;2022-08-01T18:14:10;23.90;97.20
26049;DHT22;13822;51.568;5.086;2022-08-01T18:19:12;23.70;99.90
26049;DHT22;13822;51.568;5.086;2022-08-01T18:24:14;23.60;99.90
26049;DHT22;13822;51.568;5.086;2022-08-01T18:29:23;23.50;99.90
26049;DHT22;13822;51.568;5.086;2022-08-01T18:34:45;23.50;99.90
26049;DHT22;13822;51.568;5.086;2022-08-01T18:39:47;23.40;99.90
26049;DHT22;13822;51.568;5.086;2022-08-01T18:44:50;23.10;99.90
26049;DHT22;13822;51.568;5.086;2022-08-01T18:49:53;23.00;99.90
26049;DHT22;13822;51.568;5.086;2022-08-01T18:54:56;22.90;99.90
26049;DHT22;13822;51.568;5.086;2022-08-01T18:59:58;22.70;99.90
26049;DHT22;13822;51.568;5.086;2022-08-01T19:05:07;22.60;99.90
26049;DHT22;13822;51.568;5.086;2022-08-01T19:10:10;22.50;99.90
26049;DHT22;13822;51.568;5.086;2022-08-01T19:15:13;22.30;99.90
26049;DHT22;13822;51.568;5.086;2022-08-01T19:20:15;22.20;99.90
26049;DHT22;13822;51.568;5.086;2022-08-01T19:25:18;22.10;99.90
26049;DHT22;13822;51.568;5.086;2022-08-01T19:30:20;21.90;99.90
26049;DHT22;13822;51.568;5.086;2022-08-01T19:35:23;21.80;85.50
26049;DHT22;13822;51.568;5.086;2022-08-01T19:40:26;21.70;99.90
26049;DHT22;13822;51.568;5.086;2022-08-01T19:45:29;21.70;99.90
26049;DHT22;13822;51.568;5.086;2022-08-01T19:50:31;21.60;99.90
26049;DHT22;13822;51.568;5.086;2022-08-01T19:55:37;21.40;77.10
